createdAt,value
2019-04-26T00:02:49.750Z,2.10
2019-04-26T00:05:41.300Z,1.60
2019-04-26T00:08:32.299Z,1.50
2019-04-26T00:11:30.836Z,1.97
2019-04-26T00:14:40.220Z,1.90
2019-04-26T00:17:37.755Z,1.77
2019-04-26T00:20:28.190Z,1.73
2019-04-26T00:23:18.495Z,1.83
2019-04-26T00:26:09.807Z,2.17
2019-04-26T00:29:00.405Z,1.90
2019-04-26T00:31:51.697Z,1.77
2019-04-26T00:34:42.728Z,1.87
2019-04-26T00:37:33.986Z,2.10
2019-04-26T00:40:24.209Z,2.40
2019-04-26T00:43:14.905Z,2.00
2019-04-26T00:46:06.292Z,2.00
2019-04-26T00:48:57.732Z,1.80
2019-04-26T00:51:49.063Z,1.80
2019-04-26T00:54:40.387Z,2.27
2019-04-26T00:57:31.523Z,2.07
2019-04-26T01:00:23.867Z,2.10
2019-04-26T01:03:15.242Z,2.20
2019-04-26T01:06:09.012Z,2.10
2019-04-26T01:08:59.393Z,1.87
2019-04-26T01:11:50.509Z,1.90
2019-04-26T01:14:41.753Z,2.00
2019-04-26T01:17:32.893Z,2.10
2019-04-26T01:20:24.670Z,2.17
2019-04-26T01:23:17.426Z,2.00
2019-04-26T01:26:13.990Z,2.00
2019-04-26T01:29:08.229Z,2.13
2019-04-26T01:32:06.328Z,2.43
2019-04-26T01:34:57.471Z,2.43
2019-04-26T01:37:47.889Z,2.60
2019-04-26T01:40:38.946Z,2.43
2019-04-26T01:43:44.720Z,2.70
2019-04-26T01:46:39.357Z,2.70
2019-04-26T01:49:30.556Z,2.60
2019-04-26T01:52:22.335Z,2.37
2019-04-26T01:55:13.550Z,2.37
2019-04-26T01:58:05.905Z,2.57
2019-04-26T02:01:04.375Z,2.10
2019-04-26T02:03:54.968Z,2.03
2019-04-26T02:06:45.532Z,2.40
2019-04-26T02:09:36.104Z,2.20
2019-04-26T02:12:26.792Z,2.57
2019-04-26T02:15:19.051Z,2.23
2019-04-26T02:18:10.873Z,2.23
2019-04-26T02:21:35.042Z,2.20
2019-04-26T02:24:32.176Z,2.13
2019-04-26T02:27:26.238Z,2.23
2019-04-26T02:30:16.974Z,2.30
2019-04-26T02:33:08.079Z,2.50
2019-04-26T02:35:59.203Z,2.03
2019-04-26T02:38:50.457Z,2.03
2019-04-26T02:41:41.851Z,2.70
2019-04-26T02:44:42.701Z,2.20
2019-04-26T02:47:59.837Z,2.50
2019-04-26T02:50:58.006Z,2.40
2019-04-26T02:54:47.104Z,2.13
2019-04-26T02:57:45.658Z,2.00
2019-04-26T03:00:37.751Z,2.40
2019-04-26T03:03:29.848Z,2.40
2019-04-26T03:06:20.453Z,2.50
2019-04-26T03:09:12.317Z,2.30
2019-04-26T03:12:08.744Z,2.17
2019-04-26T03:15:19.145Z,2.63
2019-04-26T03:18:31.712Z,2.50
2019-04-26T03:21:34.197Z,2.53
2019-04-26T03:24:32.940Z,2.60
2019-04-26T03:27:44.734Z,2.47
2019-04-26T03:30:49.030Z,2.77
2019-04-26T03:34:01.551Z,2.60
2019-04-26T03:38:05.519Z,2.50
2019-04-26T03:41:34.675Z,2.30
2019-04-26T03:44:33.079Z,2.20
2019-04-26T03:47:27.881Z,2.37
2019-04-26T03:50:31.282Z,2.20
2019-04-26T03:54:00.683Z,2.30
2019-04-26T03:57:16.582Z,2.20
2019-04-26T04:00:37.309Z,2.30
2019-04-26T04:03:47.754Z,2.33
2019-04-26T04:06:56.570Z,2.60
2019-04-26T04:09:30.804Z,2.57
2019-04-26T04:12:44.398Z,2.20
2019-04-26T04:15:46.737Z,2.37
2019-04-26T04:18:38.843Z,2.70
2019-04-26T04:21:53.873Z,2.80
2019-04-26T04:24:53.046Z,2.30
2019-04-26T04:27:54.664Z,2.33
2019-04-26T04:31:16.240Z,2.87
2019-04-26T04:34:13.511Z,2.50
2019-04-26T04:37:04.832Z,2.30
2019-04-26T04:40:27.636Z,2.60
2019-04-26T04:43:36.311Z,2.40
2019-04-26T04:47:25.603Z,2.90
2019-04-26T04:50:27.775Z,3.20
2019-04-26T04:53:34.913Z,3.37
2019-04-26T04:56:43.597Z,3.03
2019-04-26T04:59:25.523Z,3.00
2019-04-26T05:02:49.008Z,3.10
2019-04-26T05:06:07.824Z,3.13
2019-04-26T05:09:07.154Z,2.93
2019-04-26T05:12:00.228Z,2.93
2019-04-26T05:15:32.911Z,3.30
2019-04-26T05:18:24.246Z,3.63
2019-04-26T05:21:38.745Z,3.33
2019-04-26T05:24:35.085Z,3.47
2019-04-26T05:27:59.631Z,3.77
2019-04-26T05:31:10.007Z,3.20
2019-04-26T05:34:18.502Z,3.70
2019-04-26T05:37:32.541Z,4.07
2019-04-26T05:40:30.164Z,4.40
2019-04-26T05:43:51.736Z,4.20
2019-04-26T05:47:34.111Z,4.33
2019-04-26T05:50:58.694Z,4.53
2019-04-26T05:54:26.158Z,4.47
2019-04-26T05:57:19.905Z,4.63
2019-04-26T06:00:20.335Z,4.67
2019-04-26T06:03:24.045Z,4.73
2019-04-26T06:06:43.703Z,4.27
2019-04-26T06:10:31.399Z,4.30
2019-04-26T06:13:42.848Z,4.63
2019-04-26T06:16:55.112Z,4.70
2019-04-26T06:19:51.959Z,4.30
2019-04-26T06:22:53.694Z,4.20
2019-04-26T06:25:37.534Z,4.73
2019-04-26T06:28:54.755Z,4.30
2019-04-26T06:31:40.526Z,3.87
2019-04-26T06:34:48.410Z,3.90
2019-04-26T06:37:31.947Z,3.90
2019-04-26T06:40:48.258Z,3.57
2019-04-26T06:43:29.956Z,3.50
2019-04-26T06:47:09.814Z,3.73
2019-04-26T06:50:14.925Z,4.33
2019-04-26T06:53:50.405Z,3.60
2019-04-26T06:57:25.529Z,3.70
2019-04-26T07:00:08.778Z,3.47
2019-04-26T07:03:07.872Z,4.03
2019-04-26T07:05:40.940Z,3.57
2019-04-26T07:08:57.296Z,3.67
2019-04-26T07:12:15.594Z,3.50
2019-04-26T07:15:28.074Z,3.10
2019-04-26T07:18:16.590Z,3.23
2019-04-26T07:21:16.447Z,3.70
2019-04-26T07:25:06.017Z,3.90
2019-04-26T07:28:10.779Z,4.07
2019-04-26T07:30:55.822Z,4.60
2019-04-26T07:34:17.117Z,5.10
2019-04-26T07:37:48.184Z,4.43
2019-04-26T07:41:45.852Z,4.83
2019-04-26T07:44:53.542Z,5.77
2019-04-26T07:48:23.876Z,6.67
2019-04-26T07:51:47.952Z,6.67
2019-04-26T07:55:13.866Z,7.10
2019-04-26T07:58:54.145Z,6.97
2019-04-26T08:02:26.666Z,5.23
2019-04-26T08:05:09.515Z,5.43
2019-04-26T08:07:44.308Z,5.70
2019-04-26T08:10:18.263Z,5.67
2019-04-26T08:12:59.803Z,5.27
2019-04-26T08:16:12.370Z,5.33
2019-04-26T08:18:51.777Z,4.33
2019-04-26T08:21:31.836Z,5.13
2019-04-26T08:24:32.471Z,4.73
2019-04-26T08:27:24.719Z,4.70
2019-04-26T08:30:10.442Z,4.63
2019-04-26T08:32:46.925Z,4.80
2019-04-26T08:35:30.047Z,4.77
2019-04-26T08:38:15.942Z,4.93
2019-04-26T08:40:42.107Z,4.70
2019-04-26T08:43:33.150Z,7.13
2019-04-26T08:46:32.289Z,6.27
2019-04-26T08:49:21.714Z,4.83
2019-04-26T08:51:55.998Z,4.00
2019-04-26T08:54:32.597Z,4.57
2019-04-26T08:57:08.839Z,5.03
2019-04-26T08:59:46.184Z,5.17
2019-04-26T09:02:41.910Z,4.87
2019-04-26T09:05:33.297Z,4.63
2019-04-26T09:08:05.721Z,4.43
2019-04-26T09:10:39.292Z,4.40
2019-04-26T09:13:12.736Z,4.80
2019-04-26T09:16:12.114Z,4.63
2019-04-26T09:18:52.664Z,4.17
2019-04-26T09:21:28.910Z,4.00
2019-04-26T09:24:21.091Z,4.30
2019-04-26T09:27:02.330Z,3.63
2019-04-26T09:29:42.999Z,3.77
2019-04-26T09:32:24.110Z,3.60
2019-04-26T09:34:55.998Z,3.53
2019-04-26T09:37:28.426Z,3.60
2019-04-26T09:40:10.176Z,3.73
2019-04-26T09:42:41.478Z,4.23
2019-04-26T09:45:35.841Z,3.77
2019-04-26T09:48:16.486Z,3.57
2019-04-26T09:50:50.522Z,3.03
2019-04-26T09:53:22.986Z,3.90
2019-04-26T09:55:55.455Z,3.40
2019-04-26T09:58:30.738Z,3.97
2019-04-26T10:01:02.395Z,3.83
2019-04-26T10:03:34.889Z,3.80
2019-04-26T10:06:08.257Z,3.40
2019-04-26T10:08:43.347Z,3.50
2019-04-26T10:11:16.881Z,3.63
2019-04-26T10:14:03.956Z,3.60
2019-04-26T10:16:51.498Z,3.97
2019-04-26T10:19:51.712Z,3.03
2019-04-26T10:22:26.609Z,4.00
2019-04-26T10:25:02.383Z,4.10
2019-04-26T10:27:36.383Z,3.73
2019-04-26T10:30:09.720Z,3.50
2019-04-26T10:32:42.188Z,4.07
2019-04-26T10:35:17.450Z,3.47
2019-04-26T10:37:49.299Z,3.67
2019-04-26T10:40:34.791Z,4.00
2019-04-26T10:42:56.366Z,4.13
2019-04-26T10:45:29.121Z,4.00
2019-04-26T10:48:01.622Z,4.33
2019-04-26T10:50:34.493Z,3.77
2019-04-26T10:53:20.995Z,3.43
2019-04-26T10:56:15.403Z,3.67
2019-04-26T10:59:06.132Z,3.37
2019-04-26T11:01:37.629Z,3.73
2019-04-26T11:04:10.051Z,3.93
2019-04-26T11:06:42.456Z,4.27
2019-04-26T11:09:15.021Z,4.27
2019-04-26T11:11:47.426Z,3.87
2019-04-26T11:14:22.617Z,4.83
2019-04-26T11:16:54.090Z,4.07
2019-04-26T11:19:26.625Z,4.33
2019-04-26T11:21:59.061Z,4.33
2019-04-26T11:24:31.510Z,3.83
2019-04-26T11:27:05.253Z,3.50
2019-04-26T11:29:38.041Z,3.43
2019-04-26T11:32:10.378Z,3.87
2019-04-26T11:34:43.051Z,3.47
2019-04-26T11:37:17.997Z,3.67
2019-04-26T11:39:49.764Z,3.80
2019-04-26T11:42:22.221Z,3.43
2019-04-26T11:45:05.761Z,3.73
2019-04-26T11:47:28.768Z,4.07
2019-04-26T11:50:01.251Z,3.90
2019-04-26T11:52:36.027Z,3.33
2019-04-26T11:55:08.015Z,4.13
2019-04-26T11:57:43.780Z,4.47
2019-04-26T12:00:22.288Z,3.97
2019-04-26T12:02:54.707Z,4.53
2019-04-26T12:05:55.381Z,5.43
2019-04-26T12:08:36.656Z,4.27
2019-04-26T12:11:18.318Z,4.20
2019-04-26T12:13:43.483Z,3.87
2019-04-26T12:16:18.709Z,4.93
2019-04-26T12:18:50.407Z,4.23
2019-04-26T12:21:22.831Z,3.83
2019-04-26T12:23:56.338Z,4.00
2019-04-26T12:26:28.877Z,4.03
2019-04-26T12:29:03.740Z,4.07
2019-04-26T12:31:37.032Z,4.63
2019-04-26T12:34:09.546Z,4.23
2019-04-26T12:36:42.006Z,4.73
2019-04-26T12:39:16.399Z,4.67
2019-04-26T12:41:48.897Z,4.83
2019-04-26T12:44:21.643Z,4.70
2019-04-26T12:47:03.516Z,5.20
2019-04-26T12:49:35.516Z,5.70
2019-04-26T12:52:08.081Z,5.10
2019-04-26T12:54:42.980Z,5.30
2019-04-26T12:57:16.308Z,5.67
2019-04-26T12:59:48.696Z,6.50
2019-04-26T13:02:21.992Z,7.30
2019-04-26T13:04:54.560Z,6.53
2019-04-26T13:07:26.982Z,5.93
2019-04-26T13:10:25.346Z,6.30
2019-04-26T13:13:14.347Z,5.83
2019-04-26T13:15:59.645Z,6.00
2019-04-26T13:18:32.054Z,6.13
2019-04-26T13:21:04.601Z,5.90
2019-04-26T13:23:37.076Z,6.17
2019-04-26T13:26:09.439Z,6.37
2019-04-26T13:28:41.951Z,6.47
2019-04-26T13:31:14.429Z,6.40
2019-04-26T13:33:46.893Z,7.43
2019-04-26T13:36:19.300Z,7.00
2019-04-26T13:38:51.701Z,6.97
2019-04-26T13:41:27.889Z,6.10
2019-04-26T13:44:01.233Z,5.90
2019-04-26T13:46:58.757Z,6.07
2019-04-26T13:49:38.577Z,6.13
2019-04-26T13:52:11.007Z,5.57
2019-04-26T13:54:43.412Z,5.63
2019-04-26T13:57:15.841Z,5.63
2019-04-26T13:59:49.315Z,6.03
2019-04-26T14:02:21.750Z,6.40
2019-04-26T14:04:54.161Z,5.50
2019-04-26T14:07:26.579Z,6.07
2019-04-26T14:09:58.990Z,5.43
2019-04-26T14:12:31.416Z,5.40
2019-04-26T14:15:04.561Z,5.87
2019-04-26T14:17:38.133Z,5.87
2019-04-26T14:20:11.407Z,6.20
2019-04-26T14:22:51.772Z,6.03
2019-04-26T14:25:26.976Z,5.77
2019-04-26T14:27:59.476Z,6.23
2019-04-26T14:30:33.443Z,5.80
2019-04-26T14:33:05.873Z,6.07
2019-04-26T14:35:38.298Z,5.80
2019-04-26T14:38:10.741Z,5.93
2019-04-26T14:40:44.493Z,6.50
2019-04-26T14:43:18.261Z,5.33
2019-04-26T14:45:56.171Z,5.53
2019-04-26T14:48:35.831Z,6.40
2019-04-26T14:51:07.936Z,6.07
2019-04-26T14:53:36.277Z,6.07
2019-04-26T14:56:08.710Z,5.83
2019-04-26T14:58:42.300Z,5.87
2019-04-26T15:01:28.452Z,6.13
2019-04-26T15:04:30.351Z,5.80
2019-04-26T15:07:05.495Z,6.10
2019-04-26T15:09:36.970Z,5.93
2019-04-26T15:12:14.113Z,5.53
2019-04-26T15:14:43.578Z,5.43
2019-04-26T15:17:16.295Z,5.03
2019-04-26T15:19:50.174Z,4.47
2019-04-26T15:22:22.861Z,4.17
2019-04-26T15:24:57.794Z,4.03
2019-04-26T15:27:32.209Z,3.77
2019-04-26T15:30:05.705Z,3.20
2019-04-26T15:32:38.119Z,2.87
2019-04-26T15:35:13.504Z,3.03
2019-04-26T15:37:44.579Z,3.00
2019-04-26T15:40:31.861Z,3.60
2019-04-26T15:43:14.824Z,3.60
2019-04-26T15:46:00.422Z,3.40
2019-04-26T15:48:55.748Z,2.83
2019-04-26T15:51:29.751Z,3.07
2019-04-26T15:54:02.175Z,2.70
2019-04-26T15:56:34.576Z,3.33
2019-04-26T15:59:07.003Z,3.00
2019-04-26T16:01:41.831Z,3.73
2019-04-26T16:04:17.313Z,3.57
2019-04-26T16:06:47.807Z,3.10
2019-04-26T16:09:21.313Z,3.17
2019-04-26T16:11:55.231Z,3.40
2019-04-26T16:14:31.469Z,2.97
2019-04-26T16:17:03.230Z,2.87
2019-04-26T16:19:36.243Z,3.07
2019-04-26T16:22:08.648Z,2.97
2019-04-26T16:24:42.852Z,2.77
2019-04-26T16:27:15.395Z,3.00
2019-04-26T16:30:03.045Z,3.00
2019-04-26T16:32:43.286Z,2.67
2019-04-26T16:35:18.379Z,3.37
2019-04-26T16:37:52.013Z,3.67
2019-04-26T16:40:26.031Z,3.23
2019-04-26T16:42:59.664Z,3.00
2019-04-26T16:45:32.794Z,3.40
2019-04-26T16:48:05.353Z,2.97
2019-04-26T16:50:44.304Z,3.17
2019-04-26T16:53:36.239Z,3.07
2019-04-26T16:55:52.266Z,3.10
2019-04-26T16:58:20.292Z,3.30
2019-04-26T17:00:57.664Z,3.60
2019-04-26T17:03:27.892Z,3.40
2019-04-26T17:08:34.606Z,3.60
2019-04-26T17:09:41.878Z,3.70
2019-04-26T17:11:07.115Z,2.93
2019-04-26T17:13:49.233Z,3.50
2019-04-26T17:16:13.639Z,3.17
2019-04-26T17:18:46.130Z,4.77
2019-04-26T17:21:23.929Z,3.87
2019-04-26T17:24:14.311Z,3.37
2019-04-26T17:26:52.952Z,3.03
2019-04-26T17:29:25.359Z,2.83
2019-04-26T17:31:57.986Z,2.77
2019-04-26T17:34:30.495Z,3.37
2019-04-26T17:37:09.397Z,3.37
2019-04-26T17:39:37.070Z,2.97
2019-04-26T17:42:10.509Z,2.90
2019-04-26T17:44:43.093Z,3.23
2019-04-26T17:47:15.752Z,3.50
2019-04-26T17:49:48.187Z,3.60
2019-04-26T17:52:20.724Z,3.63
2019-04-26T17:54:53.262Z,3.50
2019-04-26T17:57:34.867Z,3.63
2019-04-26T18:00:07.185Z,3.50
2019-04-26T18:02:42.025Z,3.80
2019-04-26T18:05:10.799Z,4.47
2019-04-26T18:07:50.417Z,3.67
2019-04-26T18:10:18.826Z,3.70
2019-04-26T18:12:51.294Z,4.23
2019-04-26T18:15:24.822Z,3.93
2019-04-26T18:18:17.566Z,4.07
2019-04-26T18:21:06.818Z,4.30
2019-04-26T18:23:39.342Z,3.93
2019-04-26T18:26:13.470Z,3.80
2019-04-26T18:28:51.863Z,4.23
2019-04-26T18:31:28.902Z,3.87
2019-04-26T18:34:00.779Z,4.20
2019-04-26T18:36:32.146Z,4.17
2019-04-26T18:39:09.612Z,4.00
2019-04-26T18:41:42.712Z,4.70
2019-04-26T18:44:15.634Z,4.07
2019-04-26T18:46:56.563Z,4.27
2019-04-26T18:49:29.004Z,3.77
2019-04-26T18:52:01.412Z,3.70
2019-04-26T18:54:43.667Z,3.67
2019-04-26T18:57:17.207Z,3.87
2019-04-26T18:59:51.911Z,4.00
2019-04-26T19:02:25.632Z,3.47
2019-04-26T19:04:58.069Z,4.20
2019-04-26T19:07:32.361Z,3.90
2019-04-26T19:10:05.558Z,4.10
2019-04-26T19:12:39.273Z,3.83
2019-04-26T19:15:29.367Z,4.40
2019-04-26T19:18:12.071Z,3.90
2019-04-26T19:20:52.770Z,4.13
2019-04-26T19:23:29.015Z,4.70
2019-04-26T19:26:01.777Z,4.97
2019-04-26T19:28:35.967Z,4.63
2019-04-26T19:31:08.591Z,5.27
2019-04-26T19:33:42.815Z,4.70
2019-04-26T19:36:17.706Z,4.80
2019-04-26T19:38:51.374Z,4.47
2019-04-26T19:41:27.081Z,5.17
2019-04-26T19:44:01.762Z,4.60
2019-04-26T19:46:47.307Z,4.87
2019-04-26T19:49:44.752Z,4.67
2019-04-26T19:52:39.847Z,5.43
2019-04-26T19:55:36.233Z,5.53
2019-04-26T19:58:16.091Z,4.97
2019-04-26T20:00:46.845Z,4.87
2019-04-26T20:03:19.988Z,5.17
2019-04-26T20:05:52.933Z,5.10
2019-04-26T20:08:25.383Z,4.87
2019-04-26T20:10:57.814Z,5.13
2019-04-26T20:13:31.668Z,5.10
2019-04-26T20:16:05.991Z,5.50
2019-04-26T20:18:38.952Z,6.13
2019-04-26T20:21:15.244Z,5.93
2019-04-26T20:23:47.524Z,5.90
2019-04-26T20:26:20.190Z,5.47
2019-04-26T20:28:52.627Z,6.03
2019-04-26T20:31:44.972Z,5.50
2019-04-26T20:34:18.152Z,6.37
2019-04-26T20:36:49.071Z,5.73
2019-04-26T20:39:23.962Z,6.40
2019-04-26T20:42:01.891Z,6.00
2019-04-26T20:44:48.091Z,5.83
2019-04-26T20:47:07.647Z,6.50
2019-04-26T20:49:50.007Z,5.73
2019-04-26T20:52:21.357Z,5.93
2019-04-26T20:54:54.066Z,5.83
2019-04-26T20:57:26.661Z,6.67
2019-04-26T21:00:03.334Z,5.97
2019-04-26T21:02:35.473Z,5.80
2019-04-26T21:05:11.157Z,6.27
2019-04-26T21:07:49.385Z,6.23
2019-04-26T21:10:21.948Z,6.70
2019-04-26T21:12:54.900Z,6.70
2019-04-26T21:15:26.397Z,6.83
2019-04-26T21:18:01.329Z,6.33
2019-04-26T21:20:36.410Z,6.33
2019-04-26T21:23:07.494Z,5.90
2019-04-26T21:26:12.438Z,6.23
2019-04-26T21:29:15.398Z,6.83
2019-04-26T21:32:03.778Z,6.33
2019-04-26T21:34:38.318Z,5.37
2019-04-26T21:37:38.755Z,4.77
2019-04-26T21:40:17.832Z,4.63
2019-04-26T21:42:48.402Z,4.97
2019-04-26T21:45:21.610Z,5.40
2019-04-26T21:47:55.136Z,5.90
2019-04-26T21:50:29.085Z,6.50
2019-04-26T21:53:03.368Z,6.30
2019-04-26T21:55:38.797Z,6.00
2019-04-26T21:58:09.866Z,6.40
2019-04-26T22:01:02.937Z,6.20
2019-04-26T22:03:37.089Z,6.10
2019-04-26T22:06:09.530Z,5.23
2019-04-26T22:08:50.486Z,5.00
2019-04-26T22:11:23.302Z,5.23
2019-04-26T22:14:14.848Z,4.97
2019-04-26T22:17:01.999Z,5.07
2019-04-26T22:19:44.971Z,4.73
2019-04-26T22:22:37.505Z,5.63
2019-04-26T22:25:10.634Z,5.07
2019-04-26T22:27:43.712Z,4.87
2019-04-26T22:30:22.797Z,4.67
2019-04-26T22:32:58.313Z,4.83
2019-04-26T22:35:29.552Z,5.37
2019-04-26T22:38:03.651Z,6.17
2019-04-26T22:40:36.184Z,5.93
2019-04-26T22:43:34.561Z,6.23
2019-04-26T22:46:19.218Z,6.47
2019-04-26T22:48:54.899Z,6.53
2019-04-26T22:51:28.555Z,6.10
2019-04-26T22:54:04.318Z,6.77
2019-04-26T22:56:37.058Z,6.53
2019-04-26T22:59:08.599Z,6.77
2019-04-26T23:01:44.692Z,6.77
2019-04-26T23:04:16.366Z,6.80
2019-04-26T23:06:49.634Z,4.77
2019-04-26T23:09:23.340Z,5.00
2019-04-26T23:12:03.792Z,4.20
2019-04-26T23:14:48.214Z,4.77
2019-04-26T23:17:47.505Z,5.20
2019-04-26T23:20:37.711Z,5.73
2019-04-26T23:23:08.750Z,5.57
2019-04-26T23:25:41.294Z,5.87
2019-04-26T23:28:13.723Z,5.37
2019-04-26T23:30:46.203Z,4.47
2019-04-26T23:33:18.614Z,4.80
2019-04-26T23:35:52.976Z,5.43
2019-04-26T23:38:25.126Z,5.40
2019-04-26T23:41:01.198Z,6.27
2019-04-26T23:43:31.683Z,5.87
2019-04-26T23:46:04.203Z,5.00
2019-04-26T23:48:37.697Z,5.07
2019-04-26T23:51:10.133Z,4.03
2019-04-26T23:53:42.910Z,4.50
2019-04-26T23:56:21.760Z,3.70
2019-04-26T23:58:49.595Z,3.90
